Time;durP1;ratioP1;P1;durP2;ratioP2;P2;SDS_P1;SDS_P2;PMS_P1;PMS_P2;Temp;Humidity;BMP_temperature;BMP_pressure;BME280_temperature;BME280_humidity;BME280_pressure;Samples;Min_cycle;Max_cycle;Signal;HPM_P1;HPM_P2
2023/05/30 00:02:16;;;;;;;8.05;2.53;;;;;;;15.52;54.20;100930.66;5066922;28;20051;-88
2023/05/30 00:04:43;;;;;;;8.65;2.60;;;;;;;15.38;54.30;100919.91;5066625;28;20051;-88
2023/05/30 00:07:11;;;;;;;8.60;2.50;;;;;;;15.45;53.75;100942.63;5068880;28;20071;-88
2023/05/30 00:09:41;;;;;;;9.02;2.47;;;;;;;15.41;53.99;100944.63;5065745;28;20040;-88
2023/05/30 00:12:08;;;;;;;7.22;2.30;;;;;;;15.35;53.99;100933.44;5070764;28;20109;-89
2023/05/30 00:14:37;;;;;;;8.98;2.30;;;;;;;15.34;54.36;100947.72;5053060;28;20044;-89
2023/05/30 00:17:05;;;;;;;9.73;2.80;;;;;;;15.35;54.03;100934.28;5065580;28;20033;-90
2023/05/30 00:19:32;;;;;;;10.25;2.50;;;;;;;15.24;53.85;100917.19;5083721;28;20060;-89
2023/05/30 00:21:59;;;;;;;7.13;2.40;;;;;;;15.36;54.01;100941.34;5065332;28;20064;-89
2023/05/30 00:24:28;;;;;;;10.07;2.38;;;;;;;15.27;53.52;100943.69;5064118;28;20428;-88
2023/05/30 00:26:57;;;;;;;9.18;2.45;;;;;;;15.29;53.99;100947.13;5064271;28;20044;-88
2023/05/30 00:29:24;;;;;;;7.32;2.30;;;;;;;14.97;53.89;100901.81;5066033;28;20466;-88
2023/05/30 00:31:51;;;;;;;10.13;2.60;;;;;;;15.07;54.43;100918.16;5082584;28;20135;-89
2023/05/30 00:34:17;;;;;;;6.18;2.17;;;;;;;15.23;54.39;100943.00;5064948;28;20048;-89
2023/05/30 00:36:45;;;;;;;7.00;2.08;;;;;;;15.18;54.54;100941.56;5064936;28;20044;-88
2023/05/30 00:39:13;;;;;;;6.97;2.25;;;;;;;15.16;54.72;100940.78;5064427;28;20061;-89
2023/05/30 00:41:43;;;;;;;7.13;2.58;;;;;;;15.15;54.98;100944.38;5064123;28;20151;-89
2023/05/30 00:44:11;;;;;;;9.27;2.30;;;;;;;15.13;54.90;100928.47;5063415;28;20052;-88
2023/05/30 00:46:39;;;;;;;10.85;3.05;;;;;;;15.08;55.24;100931.41;5080690;28;20048;-88
2023/05/30 00:49:06;;;;;;;8.93;2.40;;;;;;;15.04;55.50;100927.19;5080888;28;20036;-87
2023/05/30 00:51:33;;;;;;;9.90;2.70;;;;;;;14.87;55.39;100903.28;5062769;28;20044;-88
2023/05/30 00:54:02;;;;;;;9.55;2.80;;;;;;;14.95;55.77;100926.88;5062107;28;20067;-88
2023/05/30 00:56:30;;;;;;;10.00;2.55;;;;;;;14.97;55.96;100931.16;5062735;28;20136;-88
2023/05/30 00:59:00;;;;;;;8.27;2.45;;;;;;;14.92;56.47;100932.38;5079620;28;20052;-88
2023/05/30 01:01:32;;;;;;;11.07;2.50;;;;;;;14.23;56.91;100826.91;5082222;28;20040;-89
2023/05/30 01:04:08;;;;;;;9.80;2.47;;;;;;;14.23;57.36;100832.22;5066710;28;20052;-88
2023/05/30 01:06:39;;;;;;;6.72;2.45;;;;;;;14.30;57.55;100854.94;5065463;28;20084;-87
2023/05/30 01:09:06;;;;;;;8.05;2.50;;;;;;;14.71;57.85;100916.63;5079741;28;20547;-87
2023/05/30 01:12:04;;;;;;;9.90;2.72;;;;;;;14.86;57.65;100935.38;5081161;28;20060;-88
2023/05/30 01:14:38;;;;;;;11.93;2.60;;;;;;;14.61;58.13;100904.75;5063488;28;20040;-87
2023/05/30 01:17:23;;;;;;;11.27;3.03;;;;;;;14.65;58.88;100922.28;5065251;28;20048;-87
2023/05/30 01:20:11;;;;;;;8.23;2.47;;;;;;;14.62;59.23;100929.63;5063748;28;20048;-87
2023/05/30 01:22:56;;;;;;;9.65;2.20;;;;;;;14.57;59.81;100916.53;5047813;28;20051;-88
2023/05/30 01:25:58;;;;;;;9.05;2.30;;;;;;;14.57;60.16;100937.00;5083416;28;20094;-88
2023/05/30 01:28:28;;;;;;;14.25;3.22;;;;;;;14.35;60.96;100911.47;5066890;28;20053;-88
2023/05/30 01:30:57;;;;;;;8.68;2.78;;;;;;;14.31;61.22;100912.59;5062425;28;20040;-88
2023/05/30 01:33:27;;;;;;;11.20;2.53;;;;;;;14.49;61.52;100933.88;5071807;28;20028;-86
2023/05/30 01:35:54;;;;;;;13.10;3.05;;;;;;;14.45;61.80;100933.19;5075427;28;20048;-87
2023/05/30 01:38:21;;;;;;;12.07;2.60;;;;;;;14.42;62.21;100937.84;5071978;28;20045;-86
2023/05/30 01:40:53;;;;;;;10.35;3.03;;;;;;;14.33;62.54;100924.00;5070458;28;20063;-85
2023/05/30 01:43:45;;;;;;;8.80;2.30;;;;;;;14.22;62.77;100907.75;5067457;28;20063;-86
2023/05/30 01:46:30;;;;;;;9.40;2.55;;;;;;;14.21;63.28;100919.34;5062043;28;20111;-87
2023/05/30 01:49:09;;;;;;;11.45;2.65;;;;;;;14.20;63.75;100922.97;5061501;28;20045;-87
2023/05/30 01:51:44;;;;;;;10.25;2.70;;;;;;;14.17;64.18;100936.44;5060873;28;20044;-88
2023/05/30 01:54:16;;;;;;;12.52;3.58;;;;;;;14.25;64.37;100941.38;5060143;28;20477;-88
2023/05/30 01:56:48;;;;;;;9.85;2.50;;;;;;;14.18;64.98;100935.50;5060413;28;20045;-87
2023/05/30 01:59:17;;;;;;;9.48;2.80;;;;;;;13.95;65.54;100919.88;5060744;28;20463;-87
2023/05/30 02:01:50;;;;;;;12.80;2.90;;;;;;;13.80;65.59;100899.41;5059883;28;20437;-88
2023/05/30 02:04:17;;;;;;;9.77;3.05;;;;;;;13.83;66.12;100907.22;5060587;28;20029;-88
2023/05/30 02:06:44;;;;;;;11.77;2.95;;;;;;;14.04;66.30;100954.88;5059050;28;20095;-87
2023/05/30 02:09:13;;;;;;;12.50;2.90;;;;;;;13.99;66.72;100953.41;5058187;28;20064;-87
2023/05/30 02:11:41;;;;;;;11.32;2.88;;;;;;;13.91;67.33;100936.94;5059920;28;20454;-87
2023/05/30 02:14:08;;;;;;;11.85;2.53;;;;;;;13.99;68.02;100956.06;5042232;28;20080;-87
2023/05/30 02:16:36;;;;;;;10.60;2.72;;;;;;;13.94;67.66;100955.44;5058580;28;20492;-87
2023/05/30 02:19:03;;;;;;;12.68;2.90;;;;;;;13.96;67.80;100958.88;5060476;28;20048;-88
2023/05/30 02:21:30;;;;;;;13.38;2.67;;;;;;;13.96;67.91;100961.56;5057941;28;20052;-87
2023/05/30 02:23:57;;;;;;;12.45;2.80;;;;;;;13.91;68.88;100958.25;5059562;28;20041;-87
2023/05/30 02:26:26;;;;;;;10.63;3.00;;;;;;;13.82;69.16;100945.44;5042837;28;20067;-86
2023/05/30 02:28:54;;;;;;;8.45;2.53;;;;;;;13.85;69.25;100959.41;5060102;28;20044;-88
2023/05/30 02:31:20;;;;;;;15.02;2.78;;;;;;;13.83;69.38;100949.81;5059376;28;20452;-88
2023/05/30 02:33:50;;;;;;;14.68;2.92;;;;;;;13.80;69.57;100960.63;5069303;28;20037;-87
2023/05/30 02:36:18;;;;;;;13.98;3.13;;;;;;;13.68;70.30;100949.66;5075702;28;20044;-87
2023/05/30 02:38:46;;;;;;;11.02;2.88;;;;;;;13.74;70.35;100951.13;5066741;28;20041;-87
2023/05/30 02:41:14;;;;;;;12.85;3.83;;;;;;;13.68;70.42;100951.47;5073717;28;20049;-87
2023/05/30 02:43:41;;;;;;;11.30;3.13;;;;;;;13.60;71.24;100949.19;5064134;28;20048;-86
2023/05/30 02:46:08;;;;;;;12.45;2.97;;;;;;;13.61;71.83;100961.53;5068434;28;20040;-89
2023/05/30 02:48:35;;;;;;;12.27;3.10;;;;;;;13.60;71.46;100945.66;5066115;28;20072;-88
2023/05/30 02:51:03;;;;;;;12.93;2.85;;;;;;;13.51;71.83;100940.81;5062181;28;20393;-88
2023/05/30 02:53:29;;;;;;;11.27;2.88;;;;;;;13.56;71.99;100947.59;5062746;28;20128;-88
2023/05/30 02:55:56;;;;;;;12.82;2.92;;;;;;;13.45;72.78;100934.00;5062799;28;20404;-88
2023/05/30 02:58:25;;;;;;;12.95;2.72;;;;;;;13.33;73.53;100934.59;5064499;28;20456;-89
2023/05/30 03:00:53;;;;;;;13.15;2.90;;;;;;;13.41;73.62;100951.03;5047730;28;20050;-88
2023/05/30 03:03:25;;;;;;;13.98;3.05;;;;;;;13.31;73.78;100947.13;5082201;28;20048;-88
2023/05/30 03:05:53;;;;;;;10.93;2.90;;;;;;;13.33;74.44;100945.25;5067629;28;20108;-88
2023/05/30 03:08:21;;;;;;;9.80;2.65;;;;;;;13.38;74.70;100958.34;5066386;28;20051;-87
2023/05/30 03:10:52;;;;;;;14.18;3.03;;;;;;;13.29;74.09;100927.72;5081335;28;20062;-88
2023/05/30 03:13:20;;;;;;;14.23;3.30;;;;;;;13.28;74.48;100939.28;5062320;28;20052;-88
2023/05/30 03:15:48;;;;;;;13.68;3.15;;;;;;;13.42;74.42;100958.06;5043662;28;20044;-87
2023/05/30 03:18:14;;;;;;;13.38;2.63;;;;;;;13.27;75.13;100954.38;5062877;28;20076;-88
2023/05/30 03:20:42;;;;;;;10.70;2.90;;;;;;;13.28;75.47;100953.44;5066194;28;20385;-86
2023/05/30 03:23:11;;;;;;;13.20;3.15;;;;;;;13.24;75.85;100961.63;5064852;28;20040;-88
2023/05/30 03:25:38;;;;;;;14.40;2.97;;;;;;;13.23;75.15;100959.91;5066359;28;20044;-86
2023/05/30 03:28:06;;;;;;;9.80;2.80;;;;;;;13.02;75.90;100929.91;5066484;28;20044;-87
2023/05/30 03:30:33;;;;;;;13.18;2.67;;;;;;;13.01;75.70;100936.16;5068083;28;20139;-88
2023/05/30 03:33:02;;;;;;;13.38;2.88;;;;;;;13.15;76.16;100959.44;5084223;28;20094;-87
2023/05/30 03:35:31;;;;;;;10.63;3.17;;;;;;;13.18;76.15;100976.13;5084742;28;20074;-87
2023/05/30 03:38:06;;;;;;;12.80;3.03;;;;;;;13.12;76.15;100968.38;5051329;28;20040;-87
2023/05/30 03:40:35;;;;;;;13.75;3.00;;;;;;;13.17;75.85;100977.06;5083367;28;20078;-87
2023/05/30 03:43:03;;;;;;;10.95;2.78;;;;;;;13.06;75.63;100955.41;5076754;28;20041;-87
2023/05/30 03:45:29;;;;;;;17.30;3.22;;;;;;;12.98;75.55;100953.09;5095506;28;20040;-89
2023/05/30 03:47:57;;;;;;;11.93;2.55;;;;;;;13.07;75.88;100962.44;5067298;28;20454;-89
2023/05/30 03:50:24;;;;;;;12.77;2.75;;;;;;;13.23;75.37;100983.84;5065175;28;20064;-88
2023/05/30 03:52:51;;;;;;;13.10;3.00;;;;;;;13.24;75.58;100982.91;5066658;28;20043;-87
2023/05/30 03:55:19;;;;;;;12.68;2.70;;;;;;;13.16;75.07;100969.16;5066573;28;20108;-89
2023/05/30 03:57:48;;;;;;;14.07;3.00;;;;;;;13.26;75.00;100989.03;5064815;28;20105;-87
2023/05/30 04:00:16;;;;;;;13.35;2.72;;;;;;;13.20;75.51;100989.34;5065643;28;20044;-86
2023/05/30 04:02:44;;;;;;;12.75;3.15;;;;;;;13.21;75.50;100996.38;5083864;28;20090;-87
2023/05/30 04:05:13;;;;;;;12.38;2.85;;;;;;;13.20;75.49;100992.00;5083562;28;20079;-87
2023/05/30 04:07:40;;;;;;;12.18;2.88;;;;;;;13.21;75.75;100993.72;5064863;28;20040;-87
2023/05/30 04:10:06;;;;;;;14.63;3.20;;;;;;;13.23;74.95;100997.16;5084884;28;20048;-85
2023/05/30 04:12:47;;;;;;;12.88;2.95;;;;;;;13.09;75.22;100973.00;5083495;28;20048;-88
2023/05/30 04:15:18;;;;;;;15.88;3.00;;;;;;;13.11;75.12;100972.00;5064822;28;20070;-88
2023/05/30 04:17:45;;;;;;;13.25;2.63;;;;;;;13.16;74.88;100974.47;5048182;28;20054;-87
2023/05/30 04:20:15;;;;;;;9.35;2.65;;;;;;;13.20;75.08;100994.66;5083560;28;20051;-87
2023/05/30 04:22:50;;;;;;;12.32;3.20;;;;;;;13.17;74.14;100982.38;5082599;28;20075;-88
2023/05/30 04:25:31;;;;;;;19.00;3.05;;;;;;;13.28;74.72;101016.41;5081226;28;20048;-88
2023/05/30 04:27:58;;;;;;;13.13;3.05;;;;;;;13.11;74.44;100982.63;5065380;28;20102;-88
2023/05/30 04:30:26;;;;;;;13.10;3.20;;;;;;;13.27;74.80;101012.03;5047353;28;20479;-87
2023/05/30 04:32:55;;;;;;;12.35;3.05;;;;;;;13.35;74.42;101017.84;5064336;28;20048;-87
2023/05/30 04:35:22;;;;;;;11.20;2.78;;;;;;;13.35;74.65;101020.53;5064846;28;20366;-88
2023/05/30 04:37:53;;;;;;;14.52;3.20;;;;;;;13.32;74.38;101020.66;5081511;28;20043;-88
2023/05/30 04:40:21;;;;;;;;;;;;;;;13.32;74.86;101023.31;5084734;28;20060;-87
2023/05/30 04:42:52;;;;;;;12.60;3.00;;;;;;;13.21;74.65;100993.72;5065505;28;19952;-87
2023/05/30 04:45:19;;;;;;;15.20;3.25;;;;;;;13.42;74.41;101024.59;5083711;28;20120;-86
2023/05/30 04:47:47;;;;;;;10.93;2.50;;;;;;;13.40;74.70;101014.94;5073930;28;20108;-88
2023/05/30 04:50:15;;;;;;;12.40;2.55;;;;;;;13.45;75.20;101021.78;5074801;28;20105;-86
2023/05/30 04:52:42;;;;;;;16.10;3.08;;;;;;;13.46;73.52;101012.88;5076314;28;20066;-85
2023/05/30 04:55:12;;;;;;;16.25;3.10;;;;;;;13.33;73.50;100985.16;5061517;28;20060;-87
2023/05/30 04:57:52;;;;;;;13.77;3.13;;;;;;;13.53;73.12;101032.06;5070670;28;20051;-87
2023/05/30 05:00:21;;;;;;;10.48;2.80;;;;;;;13.56;72.92;101035.41;5066648;28;20059;-87
2023/05/30 05:02:51;;;;;;;14.07;2.83;;;;;;;13.31;72.95;100990.53;5082650;28;20052;-88
2023/05/30 05:05:18;;;;;;;12.90;2.88;;;;;;;13.54;73.35;101023.13;5064175;28;20045;-88
2023/05/30 05:07:47;;;;;;;11.13;3.28;;;;;;;13.70;71.75;101038.25;5064354;28;20462;-88
2023/05/30 05:10:13;;;;;;;13.18;2.75;;;;;;;13.58;71.38;101028.22;5047605;28;20063;-87
2023/05/30 05:12:42;;;;;;;10.65;2.90;;;;;;;13.62;71.79;101043.09;5081240;28;20044;-87
2023/05/30 05:15:12;;;;;;;11.48;2.53;;;;;;;13.57;71.39;101021.19;5063575;28;20078;-89
2023/05/30 05:17:46;;;;;;;14.52;3.42;;;;;;;13.64;72.28;101035.91;5064248;28;20105;-87
2023/05/30 05:20:15;;;;;;;9.77;2.58;;;;;;;13.61;71.43;101027.22;5062967;28;20048;-86
2023/05/30 05:22:43;;;;;;;10.75;3.03;;;;;;;13.65;73.88;101039.44;5063343;28;20051;-88
2023/05/30 05:25:10;;;;;;;9.73;2.55;;;;;;;13.64;71.37;101035.06;5063537;28;20051;-88
2023/05/30 05:27:39;;;;;;;9.85;2.70;;;;;;;13.61;71.23;101021.91;5063829;28;20123;-87
2023/05/30 05:30:13;;;;;;;13.93;2.77;;;;;;;13.77;70.53;101056.59;5065930;28;20045;-87
2023/05/30 05:32:42;;;;;;;11.23;3.33;;;;;;;13.74;71.74;101056.75;5068157;28;20048;-88
2023/05/30 05:35:18;;;;;;;12.07;2.88;;;;;;;13.50;73.14;101014.44;5067301;28;20094;-89
2023/05/30 05:37:45;;;;;;;12.18;2.90;;;;;;;13.73;71.52;101052.34;5064347;28;20087;-88
2023/05/30 05:40:14;;;;;;;12.25;3.40;;;;;;;13.79;71.30;101057.38;5048050;28;20079;-88
2023/05/30 05:42:42;;;;;;;10.77;2.88;;;;;;;13.68;71.91;101039.28;5063414;28;20132;-88
2023/05/30 05:45:12;;;;;;;16.10;2.92;;;;;;;13.64;73.03;101025.28;5059468;28;20079;-87
2023/05/30 05:47:40;;;;;;;15.45;3.00;;;;;;;13.86;71.48;101050.78;5081118;28;20045;-88
2023/05/30 05:50:09;;;;;;;12.90;3.28;;;;;;;13.83;71.39;101035.00;5068134;28;20059;-88
2023/05/30 05:52:38;;;;;;;10.90;2.70;;;;;;;14.09;73.53;101057.63;5075969;28;20047;-85
2023/05/30 05:55:07;;;;;;;14.55;2.58;;;;;;;14.10;69.48;101051.38;5073377;28;20051;-88
2023/05/30 05:57:35;;;;;;;9.63;2.67;;;;;;;14.22;70.57;101054.25;5064270;28;20102;-88
2023/05/30 06:00:08;;;;;;;9.05;2.85;;;;;;;14.40;67.67;101073.81;5063137;28;20147;-88
2023/05/30 06:02:35;;;;;;;14.15;2.88;;;;;;;14.45;67.43;101054.91;5062470;28;20135;-88
2023/05/30 06:05:06;;;;;;;8.30;2.35;;;;;;;14.70;66.11;101060.66;5059032;28;20171;-89
2023/05/30 06:07:35;;;;;;;14.15;3.00;;;;;;;14.81;63.88;101042.28;5063993;28;20047;-88
2023/05/30 06:10:10;;;;;;;12.20;2.95;;;;;;;15.13;62.91;101061.84;5082501;28;20127;-88
2023/05/30 06:12:41;;;;;;;11.38;2.55;;;;;;;15.20;62.23;101038.38;5081598;28;20392;-88
2023/05/30 06:15:09;;;;;;;10.02;2.55;;;;;;;15.56;61.82;101055.00;5063228;28;20090;-89
2023/05/30 06:17:35;;;;;;;11.88;2.55;;;;;;;15.76;59.13;101053.84;5063937;28;20147;-88
2023/05/30 06:20:04;;;;;;;9.20;2.42;;;;;;;15.87;58.40;101066.59;5065476;28;20050;-88
2023/05/30 06:22:32;;;;;;;14.65;2.97;;;;;;;15.81;57.31;101058.94;5069277;28;20071;-88
2023/05/30 06:25:00;;;;;;;10.10;2.83;;;;;;;15.84;57.31;101064.97;5070022;28;20485;-87
2023/05/30 06:27:28;;;;;;;10.45;2.88;;;;;;;15.95;57.54;101064.31;5081289;28;20044;-89
2023/05/30 06:29:56;;;;;;;15.13;2.83;;;;;;;16.14;57.32;101067.63;5062209;28;20064;-88
2023/05/30 06:32:23;;;;;;;12.73;2.58;;;;;;;16.34;55.95;101074.47;5062701;28;20067;-88
2023/05/30 06:34:50;;;;;;;14.23;2.47;;;;;;;16.41;55.43;101055.28;5062440;28;20107;-88
2023/05/30 06:37:18;;;;;;;11.18;3.15;;;;;;;16.48;54.96;101037.94;5079973;28;20075;-89
2023/05/30 06:39:48;;;;;;;10.95;2.80;;;;;;;16.84;54.41;101060.72;5063712;28;20051;-89
2023/05/30 06:42:20;;;;;;;13.10;3.13;;;;;;;16.80;54.52;101032.44;5058735;28;20059;-87
2023/05/30 06:44:51;;;;;;;12.65;2.50;;;;;;;17.12;53.41;101075.88;5044205;28;20049;-88
2023/05/30 06:47:22;;;;;;;10.52;2.45;;;;;;;17.10;53.44;101072.44;5060051;28;20112;-90
2023/05/30 06:49:53;;;;;;;10.60;2.85;;;;;;;17.32;53.01;101069.25;5060618;28;20045;-89
2023/05/30 06:52:20;;;;;;;8.82;2.55;;;;;;;17.50;52.16;101076.94;5059854;28;20048;-89
2023/05/30 06:54:47;;;;;;;9.45;2.35;;;;;;;17.46;52.75;101043.31;5045820;28;20103;-88
2023/05/30 06:57:14;;;;;;;12.82;2.90;;;;;;;17.55;51.61;101068.63;5048553;28;20041;-87
2023/05/30 06:59:41;;;;;;;10.18;2.90;;;;;;;17.63;53.23;101050.22;5064245;28;20048;-88
2023/05/30 07:02:12;;;;;;;8.80;2.50;;;;;;;17.84;50.58;101056.88;5065427;28;20066;-89
2023/05/30 07:04:50;;;;;;;10.75;2.90;;;;;;;17.62;52.35;101053.88;5067071;28;20049;-87
2023/05/30 07:07:19;;;;;;;9.80;2.25;;;;;;;17.54;51.85;101074.94;5068309;28;20083;-87
2023/05/30 07:09:46;;;;;;;10.13;2.70;;;;;;;17.36;52.93;101060.91;5067149;28;20044;-89
2023/05/30 07:12:13;;;;;;;10.30;2.28;;;;;;;17.17;52.91;101069.28;5065484;28;20048;-89
2023/05/30 07:14:48;;;;;;;12.55;2.83;;;;;;;17.23;55.41;101080.53;5071986;28;20049;-88
2023/05/30 07:17:15;;;;;;;9.35;2.42;;;;;;;17.25;53.98;101084.00;5075194;28;20045;-88
2023/05/30 07:19:47;;;;;;;9.93;2.67;;;;;;;17.14;54.01;101057.91;5071406;28;20045;-89
2023/05/30 07:22:16;;;;;;;12.32;2.47;;;;;;;17.31;53.94;101075.59;5069032;28;20041;-88
2023/05/30 07:24:44;;;;;;;8.38;2.33;;;;;;;17.35;53.62;101083.28;5074024;28;20052;-88
2023/05/30 07:27:14;;;;;;;11.35;2.50;;;;;;;17.36;52.67;101046.69;5064259;28;20076;-88
2023/05/30 07:29:44;;;;;;;10.43;2.28;;;;;;;17.91;54.34;101085.94;5065855;28;20069;-88
2023/05/30 07:32:12;;;;;;;7.80;2.20;;;;;;;18.40;51.13;101087.03;5050393;28;20410;-88
2023/05/30 07:34:43;;;;;;;10.23;2.53;;;;;;;18.68;49.44;101086.03;5066795;28;20139;-87
2023/05/30 07:37:23;;;;;;;14.52;3.15;;;;;;;18.74;49.02;101087.41;5068025;28;20037;-89
2023/05/30 07:39:55;;;;;;;11.52;2.70;;;;;;;18.71;48.99;101072.41;5069977;28;20041;-88
2023/05/30 07:42:27;;;;;;;14.85;3.05;;;;;;;19.02;48.63;101087.19;5088347;28;20082;-88
2023/05/30 07:45:09;;;;;;;9.73;2.63;;;;;;;19.16;48.01;101068.28;5072991;28;20040;-89
2023/05/30 07:47:42;;;;;;;7.50;2.10;;;;;;;19.54;47.19;101075.38;5089396;28;20072;-89
2023/05/30 07:51:01;;;;;;;11.88;2.78;;;;;;;20.25;45.58;101067.28;5206263;27;24412;-90
2023/05/30 07:53:31;;;;;;;10.50;3.10;;;;;;;20.33;45.40;101039.78;5166598;27;20046;-88
2023/05/30 07:56:28;;;;;;;13.57;2.30;;;;;;;20.64;43.42;101049.91;5170299;27;20053;-88
2023/05/30 07:59:04;;;;;;;7.55;2.35;;;;;;;20.68;44.34;101063.97;5175454;27;20053;-87
2023/05/30 08:01:32;;;;;;;8.80;2.17;;;;;;;20.62;42.28;101057.22;5176594;27;20035;-88
2023/05/30 08:04:05;;;;;;;7.40;2.38;;;;;;;20.36;42.30;101052.16;5149427;27;20046;-89
2023/05/30 08:06:45;;;;;;;10.55;2.72;;;;;;;20.35;44.13;101080.88;5169902;27;20030;-89
2023/05/30 08:09:12;;;;;;;8.05;2.30;;;;;;;20.55;43.57;101071.31;5167243;27;20062;-89
2023/05/30 08:11:50;;;;;;;9.68;2.25;;;;;;;20.91;43.30;101075.63;5169574;27;20050;-90
2023/05/30 08:14:21;;;;;;;9.45;2.20;;;;;;;20.87;42.05;101087.63;5167250;27;20084;-91
2023/05/30 08:17:06;;;;;;;8.45;2.38;;;;;;;20.87;42.00;101050.78;5149427;27;20042;-90
2023/05/30 08:20:00;;;;;;;7.05;2.17;;;;;;;21.01;41.28;101058.63;5163798;27;20052;-89
2023/05/30 08:22:51;;;;;;;6.15;2.35;;;;;;;21.13;40.92;101047.81;5162137;27;20042;-90
2023/05/30 08:25:24;;;;;;;6.07;2.10;;;;;;;21.29;41.30;101057.28;5162695;27;20490;-89
2023/05/30 08:28:07;;;;;;;7.05;2.13;;;;;;;21.13;40.87;101056.75;5147978;27;20082;-88
2023/05/30 08:30:40;;;;;;;10.45;2.05;;;;;;;21.02;41.32;101059.47;5163301;27;20043;-88
2023/05/30 08:33:22;;;;;;;5.93;2.13;;;;;;;20.89;39.89;101037.22;5147662;27;20122;-89
2023/05/30 08:35:49;;;;;;;6.88;2.08;;;;;;;21.09;40.56;101067.94;5144374;27;20093;-89
2023/05/30 08:38:31;;;;;;;7.38;2.42;;;;;;;21.22;41.70;101072.25;5147731;27;20038;-89
2023/05/30 08:41:04;;;;;;;10.07;2.58;;;;;;;21.23;41.12;101060.47;5145435;27;20035;-88
2023/05/30 08:43:30;;;;;;;8.90;2.05;;;;;;;21.24;40.04;101064.03;5128098;27;20042;-88
2023/05/30 08:46:18;;;;;;;8.60;2.60;;;;;;;21.04;39.99;101052.13;5153336;27;20094;-90
2023/05/30 08:49:04;;;;;;;8.88;2.50;;;;;;;20.96;40.41;101073.41;5167164;27;20539;-88
2023/05/30 08:52:19;;;;;;;9.57;2.33;;;;;;;20.99;39.88;101039.03;5082325;27;20822;-88
2023/05/30 08:55:11;;;;;;;6.97;1.90;;;;;;;21.12;40.61;101056.88;5081509;28;20046;-89
2023/05/30 08:58:25;;;;;;;9.35;2.17;;;;;;;21.32;40.79;101046.25;5112934;28;20056;-88
2023/05/30 09:01:10;;;;;;;6.93;2.25;;;;;;;21.52;38.95;101051.84;5114035;28;20056;-88
2023/05/30 09:03:58;;;;;;;6.90;2.28;;;;;;;21.43;39.58;101031.03;5086364;28;20045;-88
2023/05/30 09:06:26;;;;;;;7.15;2.58;;;;;;;21.22;39.52;100998.66;5124219;28;20056;-88
2023/05/30 09:09:09;;;;;;;7.43;2.50;;;;;;;21.69;39.20;101036.00;5102608;28;20048;-88
2023/05/30 09:11:56;;;;;;;11.40;2.67;;;;;;;21.60;39.98;101046.66;5112315;28;20048;-89
2023/05/30 09:14:30;;;;;;;5.50;1.77;;;;;;;21.28;40.61;101052.88;5086651;28;20132;-88
2023/05/30 09:17:02;;;;;;;5.53;2.08;;;;;;;20.96;40.77;101049.19;5087541;28;20052;-86
2023/05/30 09:19:44;;;;;;;7.57;2.00;;;;;;;20.57;41.49;101013.72;5051385;28;20147;-88
2023/05/30 09:26:15;;;;;;;8.98;2.50;;;;;;;20.43;42.06;101032.78;5047030;28;20099;-88
2023/05/30 09:29:45;;;;;;;7.70;2.53;;;;;;;20.21;41.49;101012.00;5029797;28;20045;-87
2023/05/30 09:32:12;;;;;;;6.15;1.77;;;;;;;20.44;41.29;101041.69;5044704;28;20041;-88
2023/05/30 09:34:57;;;;;;;6.65;1.65;;;;;;;20.26;41.87;101008.97;5042974;28;20050;-89
2023/05/30 09:37:44;;;;;;;18.70;2.53;;;;;;;20.44;40.80;101022.88;5010032;28;20046;-87
2023/05/30 09:40:15;;;;;;;6.75;2.00;;;;;;;20.40;41.00;101046.44;5027953;28;20115;-87
2023/05/30 09:42:54;;;;;;;7.90;2.33;;;;;;;20.39;40.84;101038.50;5014208;28;20056;-88
2023/05/30 09:45:37;;;;;;;8.93;2.28;;;;;;;20.16;40.75;101032.16;5025841;28;20116;-88
2023/05/30 09:48:18;;;;;;;7.65;2.10;;;;;;;20.16;41.44;101040.22;5032304;28;20045;-88
2023/05/30 09:51:00;;;;;;;5.88;2.20;;;;;;;20.32;42.05;101027.31;5067896;28;20060;-89
2023/05/30 09:54:06;;;;;;;6.65;2.03;;;;;;;20.59;41.91;101027.91;5085835;28;20064;-88
2023/05/30 09:56:48;;;;;;;7.00;2.10;;;;;;;20.56;40.24;100993.16;5083656;28;20079;-87
2023/05/30 09:59:23;;;;;;;7.68;2.03;;;;;;;20.63;41.05;101032.03;5082188;28;20048;-88
2023/05/30 10:02:12;;;;;;;7.38;2.20;;;;;;;20.49;41.70;101021.50;5083957;28;20096;-87
2023/05/30 10:04:48;;;;;;;7.70;2.03;;;;;;;20.66;41.16;101033.63;5076393;28;20129;-86
2023/05/30 10:07:21;;;;;;;7.63;2.58;;;;;;;20.71;40.55;101033.28;5092362;28;20048;-88
2023/05/30 10:09:58;;;;;;;6.20;1.85;;;;;;;20.58;39.88;101018.13;5078189;28;20033;-87
2023/05/30 10:12:53;;;;;;;8.88;2.25;;;;;;;20.35;40.35;100973.28;5061972;28;20045;-88
2023/05/30 10:15:30;;;;;;;6.13;2.55;;;;;;;20.79;40.10;101029.00;5070954;28;20466;-88
2023/05/30 10:18:06;;;;;;;5.35;1.80;;;;;;;20.76;39.69;101036.47;5051485;28;20068;-88
2023/05/30 10:20:36;;;;;;;10.38;2.60;;;;;;;20.69;40.54;101021.78;5069814;28;20052;-87
2023/05/30 10:23:06;;;;;;;5.65;2.00;;;;;;;20.82;40.32;101025.19;5069770;28;20551;-87
2023/05/30 10:25:54;;;;;;;8.15;2.55;;;;;;;20.90;39.54;101014.69;5070354;28;20075;-88
2023/05/30 10:28:28;;;;;;;4.28;2.00;;;;;;;21.09;40.74;101027.53;5074034;28;20037;-87
2023/05/30 10:30:58;;;;;;;5.95;2.10;;;;;;;21.15;39.84;101003.63;5084688;28;20100;-88
2023/05/30 10:33:29;;;;;;;7.35;2.45;;;;;;;21.31;38.84;100998.75;5085890;28;20060;-88
2023/05/30 10:36:24;;;;;;;5.95;2.35;;;;;;;21.48;38.65;101015.34;5059754;28;20045;-87
2023/05/30 10:39:17;;;;;;;6.45;2.10;;;;;;;21.43;38.52;101015.72;5076074;28;20049;-87
2023/05/30 10:42:05;;;;;;;6.55;2.20;;;;;;;21.41;38.64;101017.69;5076857;28;20045;-87
2023/05/30 10:44:54;;;;;;;7.63;2.13;;;;;;;21.45;38.60;101007.53;5091093;28;20102;-87
2023/05/30 10:47:41;;;;;;;8.10;2.08;;;;;;;21.46;37.77;101004.69;5075440;28;20045;-87
2023/05/30 10:50:22;;;;;;;7.15;2.50;;;;;;;21.38;38.63;100982.94;5094897;28;20111;-86
2023/05/30 10:52:48;;;;;;;5.85;2.10;;;;;;;21.46;37.83;101006.53;5059181;28;20168;-90
2023/05/30 10:55:15;;;;;;;8.02;2.50;;;;;;;21.44;38.30;101005.81;5055784;28;20055;-89
2023/05/30 10:57:45;;;;;;;7.65;1.92;;;;;;;21.47;38.79;100997.47;5054459;28;20051;-90
2023/05/30 11:00:30;;;;;;;7.28;2.08;;;;;;;21.66;38.29;100997.66;5072060;28;20125;-88
2023/05/30 11:03:01;;;;;;;7.15;2.55;;;;;;;21.73;37.20;100989.91;5050053;28;20046;-89
2023/05/30 11:05:32;;;;;;;11.60;2.80;;;;;;;21.76;37.46;100981.56;5069221;28;20072;-88
2023/05/30 11:08:17;;;;;;;9.43;2.55;;;;;;;21.87;37.90;100979.69;5096585;28;20048;-89
2023/05/30 11:10:58;;;;;;;7.63;2.15;;;;;;;21.87;37.20;100955.41;5069212;28;20036;-88
2023/05/30 11:13:30;;;;;;;6.65;2.42;;;;;;;21.92;36.82;100984.66;5070661;28;20045;-89
2023/05/30 11:16:01;;;;;;;6.18;2.17;;;;;;;21.87;36.93;100971.59;5082036;28;20056;-89
2023/05/30 11:18:39;;;;;;;5.80;1.73;;;;;;;21.85;37.26;100960.09;5101041;28;20052;-89
2023/05/30 11:21:15;;;;;;;6.93;2.00;;;;;;;21.87;36.61;100954.56;5123685;28;20087;-92
2023/05/30 11:24:04;;;;;;;5.32;2.10;;;;;;;21.78;36.47;100950.78;5093417;28;20123;-89
2023/05/30 11:27:08;;;;;;;8.55;2.50;;;;;;;21.82;36.10;100944.16;5098679;28;20079;-88
2023/05/30 11:29:58;;;;;;;5.88;2.17;;;;;;;21.72;36.46;100904.66;5095808;28;20045;-90
2023/05/30 11:32:59;;;;;;;5.32;2.20;;;;;;;22.11;36.36;100949.78;5095592;28;20029;-89
2023/05/30 11:44:13;;;;;;;6.57;1.95;;;;;;;22.12;36.25;100947.94;5037346;28;20052;-88
2023/05/30 11:47:11;;;;;;;5.82;1.95;;;;;;;22.21;35.85;100941.72;5070877;28;20044;-90
2023/05/30 11:50:39;;;;;;;7.25;2.25;;;;;;;22.46;35.32;100951.25;5095374;28;20040;-89
2023/05/30 11:54:35;;;;;;;5.72;2.17;;;;;;;22.42;34.97;100942.56;5063597;28;20049;-89
2023/05/30 11:57:25;;;;;;;8.63;2.28;;;;;;;22.25;36.00;100900.00;5023196;28;20054;-90
2023/05/30 12:00:08;;;;;;;6.80;2.22;;;;;;;22.49;35.45;100897.88;5052320;28;20055;-88
2023/05/30 12:02:48;;;;;;;4.32;1.77;;;;;;;22.64;34.47;100934.28;5055296;28;20057;-88
2023/05/30 12:05:21;;;;;;;9.07;2.35;;;;;;;22.79;34.06;100952.84;5041584;28;20052;-89
2023/05/30 12:08:08;;;;;;;5.40;2.03;;;;;;;22.79;34.65;100947.44;5077268;28;20033;-90